Time;durP1;ratioP1;P1;durP2;ratioP2;P2;SDS_P1;SDS_P2;PMS_P1;PMS_P2;Temp;Humidity;BMP_temperature;BMP_pressure;BME280_temperature;BME280_humidity;BME280_pressure;Samples;Min_cycle;Max_cycle;Signal;HPM_P1;HPM_P2
2022/01/17 00:00:09;;;;;;;31.60;15.70;;;;;;;;;;5000955;28;20050;-78
2022/01/17 00:02:36;;;;;;;30.60;15.30;;;;;;;;;;4999477;28;20101;-78
2022/01/17 00:05:03;;;;;;;27.92;15.32;;;;;;;;;;4996313;28;20120;-78
2022/01/17 00:07:30;;;;;;;29.17;14.95;;;;;;;;;;4995224;28;20469;-78
2022/01/17 00:09:58;;;;;;;31.15;14.80;;;;;;;;;;4998809;28;20493;-77
2022/01/17 00:12:26;;;;;;;31.13;16.25;;;;;;;;;;5002102;28;20042;-77
2022/01/17 00:14:55;;;;;;;32.47;16.42;;;;;;;;;;5004609;28;20117;-77
2022/01/17 00:17:32;;;;;;;26.77;14.93;;;;;;;;;;5007437;28;20046;-77
2022/01/17 00:20:08;;;;;;;32.83;16.13;;;;;;;;;;4995752;28;20137;-77
2022/01/17 00:22:35;;;;;;;31.80;15.70;;;;;;;;;;4994960;28;20068;-78
2022/01/17 00:25:02;;;;;;;28.15;15.23;;;;;;;;;;4996122;28;20046;-78
2022/01/17 00:27:31;;;;;;;32.08;15.68;;;;;;;;;;4994968;28;20051;-78
2022/01/17 00:29:58;;;;;;;28.33;15.20;;;;;;;;;;4997537;28;20054;-77
2022/01/17 00:32:25;;;;;;;30.77;15.88;;;;;;;;;;4994365;28;20082;-77
2022/01/17 00:34:52;;;;;;;31.63;15.63;;;;;;;;;;4994249;28;20700;-76
2022/01/17 00:37:18;;;;;;;30.48;16.42;;;;;;;;;;4994052;28;20093;-78
2022/01/17 00:39:45;;;;;;;31.00;16.00;;;;;;;;;;4997396;28;20046;-78
2022/01/17 00:42:12;;;;;;;29.25;15.13;;;;;;;;;;4995665;28;20556;-77
2022/01/17 00:44:40;;;;;;;31.60;14.90;;;;;;;;;;4994372;28;20117;-77
2022/01/17 00:47:07;;;;;;;29.90;16.15;;;;;;;;;;4993724;28;20046;-77
2022/01/17 00:49:34;;;;;;;29.85;15.85;;;;;;;;;;4993886;28;20120;-78
2022/01/17 00:52:02;;;;;;;30.20;16.15;;;;;;;;;;4993823;28;20046;-78
2022/01/17 00:54:31;;;;;;;28.00;14.35;;;;;;;;;;4994480;28;20057;-76
2022/01/17 00:56:57;;;;;;;27.33;15.07;;;;;;;;;;4993986;28;20490;-77
2022/01/17 00:59:24;;;;;;;30.77;14.82;;;;;;;;;;4994854;28;20050;-77
2022/01/17 01:01:52;;;;;;;34.55;17.20;;;;;;;;;;4994370;28;20089;-77
2022/01/17 01:04:19;;;;;;;30.55;15.45;;;;;;;;;;4994085;28;20463;-76
2022/01/17 01:06:46;;;;;;;31.38;16.35;;;;;;;;;;4996133;28;20227;-79
2022/01/17 01:09:13;;;;;;;27.02;14.70;;;;;;;;;;4996739;28;20046;-79
2022/01/17 01:11:40;;;;;;;32.25;15.77;;;;;;;;;;4998064;28;20126;-78
2022/01/17 01:14:06;;;;;;;28.58;14.70;;;;;;;;;;4995558;28;20501;-78
2022/01/17 01:16:35;;;;;;;28.35;14.80;;;;;;;;;;4996582;28;20042;-78
2022/01/17 01:27:44;;;;;;;27.98;13.63;;;;;;;;;;4994724;28;20061;-76
2022/01/17 01:30:14;;;;;;;24.20;13.73;;;;;;;;;;4993428;28;20105;-77
2022/01/17 01:32:45;;;;;;;23.67;13.32;;;;;;;;;;5002652;28;20473;-77
2022/01/17 01:35:16;;;;;;;27.77;14.48;;;;;;;;;;5004040;28;20051;-77
2022/01/17 01:37:45;;;;;;;24.23;13.27;;;;;;;;;;5000265;28;20054;-77
2022/01/17 01:40:13;;;;;;;23.60;12.85;;;;;;;;;;5002541;28;20070;-78
2022/01/17 01:42:40;;;;;;;22.45;12.00;;;;;;;;;;5004970;28;20105;-78
2022/01/17 01:45:09;;;;;;;23.90;12.20;;;;;;;;;;5003836;28;20050;-77
2022/01/17 01:47:36;;;;;;;22.15;11.35;;;;;;;;;;5003911;28;20100;-78
2022/01/17 01:50:06;;;;;;;22.77;12.23;;;;;;;;;;5002360;28;20116;-77
2022/01/17 01:52:34;;;;;;;23.05;11.15;;;;;;;;;;5001458;28;20050;-77
2022/01/17 01:55:01;;;;;;;20.02;11.82;;;;;;;;;;4997540;28;20050;-77
2022/01/17 01:57:28;;;;;;;21.10;11.07;;;;;;;;;;4997407;28;20132;-77
2022/01/17 01:59:55;;;;;;;20.67;11.77;;;;;;;;;;5002178;28;20452;-78
2022/01/17 02:02:22;;;;;;;20.42;10.05;;;;;;;;;;5002568;28;20042;-78
2022/01/17 02:04:49;;;;;;;18.30;9.90;;;;;;;;;;5003299;28;20073;-78
2022/01/17 02:07:16;;;;;;;16.88;9.38;;;;;;;;;;5003857;28;20089;-77
2022/01/17 02:09:44;;;;;;;20.05;10.93;;;;;;;;;;5003170;28;20070;-77
2022/01/17 02:12:13;;;;;;;19.70;10.57;;;;;;;;;;5001821;28;20047;-78
2022/01/17 02:14:39;;;;;;;21.13;9.40;;;;;;;;;;5000985;28;20133;-78
2022/01/17 02:17:06;;;;;;;18.30;9.77;;;;;;;;;;5000189;28;20046;-77
2022/01/17 02:19:34;;;;;;;18.35;9.70;;;;;;;;;;5002331;28;20055;-78
2022/01/17 02:22:04;;;;;;;19.75;10.18;;;;;;;;;;5002964;28;20054;-77
2022/01/17 02:24:32;;;;;;;17.23;9.48;;;;;;;;;;5001970;28;20046;-77
2022/01/17 02:26:59;;;;;;;19.38;9.00;;;;;;;;;;5000032;28;20054;-79
2022/01/17 02:29:26;;;;;;;16.80;8.18;;;;;;;;;;5001443;28;20141;-78
2022/01/17 02:31:53;;;;;;;16.38;9.40;;;;;;;;;;5001700;28;20050;-78
2022/01/17 02:34:20;;;;;;;13.65;7.90;;;;;;;;;;4998457;28;20485;-77
2022/01/17 02:36:46;;;;;;;15.77;8.52;;;;;;;;;;4996219;28;20046;-76
2022/01/17 02:39:15;;;;;;;18.05;7.93;;;;;;;;;;4998925;28;20042;-77
2022/01/17 02:41:43;;;;;;;15.23;8.73;;;;;;;;;;4998803;28;20046;-77
2022/01/17 02:44:11;;;;;;;16.38;8.32;;;;;;;;;;4996776;28;20493;-77
2022/01/17 02:46:38;;;;;;;12.93;7.45;;;;;;;;;;5001437;28;20054;-77
2022/01/17 02:49:06;;;;;;;14.25;7.80;;;;;;;;;;4999579;28;20054;-77
2022/01/17 02:51:33;;;;;;;16.08;7.53;;;;;;;;;;4996152;28;20046;-77
2022/01/17 02:54:00;;;;;;;16.02;8.23;;;;;;;;;;4999670;28;20093;-77
2022/01/17 02:56:28;;;;;;;13.68;7.55;;;;;;;;;;5000390;28;20050;-77
2022/01/17 02:58:55;;;;;;;16.90;7.90;;;;;;;;;;4999493;28;20042;-78
2022/01/17 03:01:24;;;;;;;15.07;7.65;;;;;;;;;;5004583;28;20046;-77
2022/01/17 03:03:51;;;;;;;12.95;7.15;;;;;;;;;;5006141;28;20082;-77
2022/01/17 03:06:19;;;;;;;13.88;7.53;;;;;;;;;;5007616;28;20074;-77
2022/01/17 03:08:46;;;;;;;12.60;7.25;;;;;;;;;;5007294;28;20594;-77
2022/01/17 03:11:15;;;;;;;14.68;7.07;;;;;;;;;;5004820;28;20047;-77
2022/01/17 03:13:44;;;;;;;15.65;7.60;;;;;;;;;;5004244;28;20105;-77
2022/01/17 03:16:13;;;;;;;15.68;7.43;;;;;;;;;;5002875;28;20046;-77
2022/01/17 03:18:43;;;;;;;15.93;7.55;;;;;;;;;;5028625;23;20250;-65
2022/01/17 03:21:12;;;;;;;12.88;7.30;;;;;;;;;;5013730;28;20049;-65
2022/01/17 03:23:40;;;;;;;15.93;8.70;;;;;;;;;;5014607;28;20056;-65
2022/01/17 03:26:08;;;;;;;14.57;6.93;;;;;;;;;;5014924;28;20407;-66
2022/01/17 03:28:35;;;;;;;14.20;7.57;;;;;;;;;;5014527;28;20522;-64
2022/01/17 03:31:04;;;;;;;13.40;6.63;;;;;;;;;;5014551;28;20057;-65
2022/01/17 03:33:31;;;;;;;13.30;6.80;;;;;;;;;;5014557;28;20495;-65
2022/01/17 03:35:59;;;;;;;12.35;6.95;;;;;;;;;;5014444;28;20053;-65
2022/01/17 03:38:27;;;;;;;12.60;7.40;;;;;;;;;;5014165;28;20046;-65
2022/01/17 03:40:55;;;;;;;12.50;6.53;;;;;;;;;;5014171;28;20054;-66
2022/01/17 03:43:24;;;;;;;12.30;7.35;;;;;;;;;;5014045;28;20054;-66
2022/01/17 03:45:51;;;;;;;14.05;7.20;;;;;;;;;;5014267;28;20117;-65
2022/01/17 03:48:20;;;;;;;12.38;6.57;;;;;;;;;;5014041;28;20057;-66
2022/01/17 03:50:47;;;;;;;13.48;7.43;;;;;;;;;;5014353;28;20069;-65
2022/01/17 03:53:14;;;;;;;14.38;7.32;;;;;;;;;;5014237;28;20068;-65
2022/01/17 03:55:41;;;;;;;14.82;6.68;;;;;;;;;;5014241;28;20050;-65
2022/01/17 03:58:09;;;;;;;15.77;7.53;;;;;;;;;;5013729;28;20042;-65
2022/01/17 04:00:38;;;;;;;13.90;7.30;;;;;;;;;;5013986;28;20060;-64
2022/01/17 04:03:05;;;;;;;15.18;7.97;;;;;;;;;;5013598;28;20057;-65
2022/01/17 04:05:33;;;;;;;12.43;7.20;;;;;;;;;;5014035;28;20046;-65
2022/01/17 04:08:00;;;;;;;16.13;7.68;;;;;;;;;;5013266;28;20379;-65
2022/01/17 04:10:28;;;;;;;14.07;7.05;;;;;;;;;;5013690;28;20054;-64
2022/01/17 04:13:01;;;;;;;14.32;7.65;;;;;;;;;;5013710;28;20072;-64
2022/01/17 04:15:28;;;;;;;13.20;7.72;;;;;;;;;;5013604;28;20065;-64
2022/01/17 04:17:55;;;;;;;16.05;7.50;;;;;;;;;;5013331;28;20411;-65
2022/01/17 04:20:27;;;;;;;15.85;7.75;;;;;;;;;;5013440;28;20426;-66
2022/01/17 04:22:56;;;;;;;16.42;8.20;;;;;;;;;;5013642;28;20045;-66
2022/01/17 04:25:24;;;;;;;16.48;7.90;;;;;;;;;;5013372;28;20045;-65
2022/01/17 04:27:52;;;;;;;13.32;7.00;;;;;;;;;;5013345;28;20046;-66
2022/01/17 04:30:20;;;;;;;15.63;7.43;;;;;;;;;;5013315;28;20049;-65
2022/01/17 04:32:48;;;;;;;14.65;7.28;;;;;;;;;;5013378;28;20053;-65
2022/01/17 04:35:20;;;;;;;15.93;8.23;;;;;;;;;;5013266;28;20479;-64
2022/01/17 04:37:49;;;;;;;14.15;7.45;;;;;;;;;;5013224;28;20531;-64
2022/01/17 04:40:18;;;;;;;12.82;6.78;;;;;;;;;;5013049;28;20079;-66
2022/01/17 04:42:47;;;;;;;13.15;7.00;;;;;;;;;;5013569;28;20503;-65
2022/01/17 04:45:16;;;;;;;13.52;7.38;;;;;;;;;;5013170;28;20127;-67
2022/01/17 04:47:45;;;;;;;12.20;7.07;;;;;;;;;;5013112;28;20283;-65
2022/01/17 04:50:15;;;;;;;13.45;7.55;;;;;;;;;;5013114;28;20422;-65
2022/01/17 04:52:42;;;;;;;15.65;7.80;;;;;;;;;;5013040;28;20042;-65
2022/01/17 04:55:12;;;;;;;12.38;7.57;;;;;;;;;;5012816;28;20054;-67
2022/01/17 04:57:40;;;;;;;12.57;6.88;;;;;;;;;;5012507;28;20041;-65
2022/01/17 05:00:09;;;;;;;12.93;7.40;;;;;;;;;;5012393;28;20051;-65
2022/01/17 05:02:36;;;;;;;14.82;7.15;;;;;;;;;;5013019;28;20046;-66
2022/01/17 05:05:04;;;;;;;13.70;7.07;;;;;;;;;;5012990;28;20053;-65
2022/01/17 05:07:32;;;;;;;13.02;8.02;;;;;;;;;;5012707;28;20049;-66
2022/01/17 05:09:59;;;;;;;13.77;7.38;;;;;;;;;;5013098;28;20058;-65
2022/01/17 05:12:26;;;;;;;13.00;7.05;;;;;;;;;;5012942;28;20046;-65
2022/01/17 05:14:55;;;;;;;13.25;7.05;;;;;;;;;;5012476;28;20046;-65
2022/01/17 05:17:39;;;;;;;15.23;7.55;;;;;;;;;;5012371;28;20644;-66
2022/01/17 05:20:08;;;;;;;13.30;7.30;;;;;;;;;;5012641;28;20103;-65
2022/01/17 05:22:36;;;;;;;16.35;8.40;;;;;;;;;;5012661;28;20042;-65
2022/01/17 05:25:08;;;;;;;14.75;7.18;;;;;;;;;;5012465;28;20054;-65
2022/01/17 05:27:36;;;;;;;13.20;7.75;;;;;;;;;;5012724;28;20645;-66
2022/01/17 05:30:06;;;;;;;14.95;7.22;;;;;;;;;;5013002;28;20058;-65
2022/01/17 05:32:33;;;;;;;13.25;6.53;;;;;;;;;;5013032;28;20050;-65
2022/01/17 05:35:00;;;;;;;11.93;7.18;;;;;;;;;;5012741;28;20046;-65
2022/01/17 05:37:27;;;;;;;13.10;7.22;;;;;;;;;;5011969;28;20045;-66
2022/01/17 05:39:54;;;;;;;11.88;7.00;;;;;;;;;;5012742;28;20050;-66
2022/01/17 05:42:21;;;;;;;12.15;6.75;;;;;;;;;;5012793;28;20052;-65
2022/01/17 05:44:48;;;;;;;13.98;7.32;;;;;;;;;;5012505;28;20050;-64
2022/01/17 05:47:17;;;;;;;13.40;7.07;;;;;;;;;;5012393;28;20419;-65
2022/01/17 05:49:44;;;;;;;14.45;7.28;;;;;;;;;;5012467;28;20042;-64
2022/01/17 05:52:12;;;;;;;15.57;7.55;;;;;;;;;;5012041;28;20049;-65
2022/01/17 05:54:41;;;;;;;12.13;7.03;;;;;;;;;;5012206;28;20045;-66
2022/01/17 05:57:09;;;;;;;12.07;6.70;;;;;;;;;;5012891;28;20046;-64
2022/01/17 05:59:36;;;;;;;13.45;7.03;;;;;;;;;;5012074;28;20138;-65
2022/01/17 06:02:03;;;;;;;12.23;6.53;;;;;;;;;;5012102;28;20049;-65
2022/01/17 06:04:31;;;;;;;10.57;6.38;;;;;;;;;;5012027;28;20057;-66
2022/01/17 06:06:58;;;;;;;12.77;6.60;;;;;;;;;;5012089;28;20049;-65
2022/01/17 06:09:25;;;;;;;11.73;6.20;;;;;;;;;;5012669;28;20491;-66
2022/01/17 06:11:52;;;;;;;12.57;6.78;;;;;;;;;;5012181;28;20075;-66
2022/01/17 06:14:20;;;;;;;12.75;6.72;;;;;;;;;;5012152;28;20064;-65
2022/01/17 06:16:48;;;;;;;12.80;6.70;;;;;;;;;;5012071;28;20057;-66
2022/01/17 06:19:15;;;;;;;10.85;5.97;;;;;;;;;;5012376;28;20050;-66
2022/01/17 06:21:43;;;;;;;13.18;6.75;;;;;;;;;;5012723;28;20049;-65
2022/01/17 06:24:11;;;;;;;12.20;6.00;;;;;;;;;;5012609;28;20050;-65
2022/01/17 06:26:39;;;;;;;11.77;6.38;;;;;;;;;;5012973;28;20468;-65
2022/01/17 06:29:06;;;;;;;11.65;6.65;;;;;;;;;;5016026;28;20042;-67
2022/01/17 06:31:33;;;;;;;11.85;6.95;;;;;;;;;;5015482;28;20054;-66
2022/01/17 06:34:00;;;;;;;13.25;6.32;;;;;;;;;;5015890;28;20054;-65
2022/01/17 06:36:28;;;;;;;14.30;7.20;;;;;;;;;;5015290;28;20061;-65
2022/01/17 06:38:56;;;;;;;12.43;6.80;;;;;;;;;;5015591;28;20065;-65
2022/01/17 06:41:24;;;;;;;12.77;7.28;;;;;;;;;;5015388;28;20057;-66
2022/01/17 06:43:51;;;;;;;11.95;6.80;;;;;;;;;;5015500;28;20056;-67
2022/01/17 06:46:18;;;;;;;12.05;5.82;;;;;;;;;;5015240;28;20085;-65
2022/01/17 06:48:46;;;;;;;13.85;6.50;;;;;;;;;;5015301;28;20049;-65
2022/01/17 06:51:14;;;;;;;12.93;6.65;;;;;;;;;;5015384;28;20523;-65
2022/01/17 06:53:41;;;;;;;12.02;6.40;;;;;;;;;;5015329;28;20046;-66
2022/01/17 06:56:10;;;;;;;12.45;6.47;;;;;;;;;;5015575;28;20049;-66
2022/01/17 06:58:37;;;;;;;13.35;6.47;;;;;;;;;;5014779;28;20046;-65
2022/01/17 07:01:04;;;;;;;13.65;7.18;;;;;;;;;;5014839;28;20143;-64
2022/01/17 07:03:31;;;;;;;12.10;6.22;;;;;;;;;;5014929;28;20050;-65
2022/01/17 07:05:58;;;;;;;12.05;6.10;;;;;;;;;;5015236;28;20045;-66
2022/01/17 07:08:25;;;;;;;10.93;6.60;;;;;;;;;;5014733;28;20045;-65
2022/01/17 07:10:52;;;;;;;13.23;7.20;;;;;;;;;;5015061;28;20054;-66
2022/01/17 07:13:20;;;;;;;12.52;6.07;;;;;;;;;;5014727;28;20089;-65
2022/01/17 07:15:47;;;;;;;11.15;6.75;;;;;;;;;;5014905;28;20446;-65
2022/01/17 07:18:14;;;;;;;12.15;7.03;;;;;;;;;;5014222;28;20058;-66
2022/01/17 07:20:41;;;;;;;13.15;6.53;;;;;;;;;;5014538;28;20045;-65
2022/01/17 07:23:09;;;;;;;15.63;6.63;;;;;;;;;;5014532;28;20412;-67
2022/01/17 07:25:38;;;;;;;13.82;7.13;;;;;;;;;;5015133;28;20057;-67
2022/01/17 07:28:06;;;;;;;11.60;5.80;;;;;;;;;;5014656;28;20184;-65
2022/01/17 07:30:35;;;;;;;11.43;6.32;;;;;;;;;;5014596;28;20045;-65
2022/01/17 07:33:02;;;;;;;12.73;6.95;;;;;;;;;;5014535;28;20052;-66
2022/01/17 07:35:29;;;;;;;11.10;6.22;;;;;;;;;;5014630;28;20260;-66
2022/01/17 07:37:56;;;;;;;11.02;6.18;;;;;;;;;;5013982;28;20050;-65
2022/01/17 07:40:23;;;;;;;13.18;7.15;;;;;;;;;;5014255;28;20056;-66
2022/01/17 07:42:51;;;;;;;11.82;6.32;;;;;;;;;;5014685;28;20060;-65
2022/01/17 07:45:20;;;;;;;14.65;6.82;;;;;;;;;;5014243;28;20046;-66
2022/01/17 07:48:09;;;;;;;10.40;6.03;;;;;;;;;;5013628;28;20081;-65
2022/01/17 07:50:36;;;;;;;11.93;6.50;;;;;;;;;;5014259;28;20052;-64
2022/01/17 07:53:04;;;;;;;10.48;6.30;;;;;;;;;;5014034;28;20499;-66
2022/01/17 07:55:31;;;;;;;13.32;6.70;;;;;;;;;;5013735;28;20116;-65
2022/01/17 07:57:58;;;;;;;11.52;5.57;;;;;;;;;;5013848;28;20053;-66
2022/01/17 08:00:25;;;;;;;9.68;5.95;;;;;;;;;;5014106;28;20053;-64
2022/01/17 08:02:56;;;;;;;12.65;7.05;;;;;;;;;;5013745;28;20053;-65
2022/01/17 08:05:24;;;;;;;11.77;6.28;;;;;;;;;;5013672;28;20052;-65
2022/01/17 08:07:52;;;;;;;10.85;5.97;;;;;;;;;;5013564;28;20092;-65
2022/01/17 08:10:19;;;;;;;12.82;6.50;;;;;;;;;;5013487;28;20061;-64
2022/01/17 08:12:47;;;;;;;11.43;6.00;;;;;;;;;;5010028;28;20129;-64
2022/01/17 08:15:16;;;;;;;11.48;6.70;;;;;;;;;;5011504;28;20046;-64
2022/01/17 08:17:43;;;;;;;12.70;6.15;;;;;;;;;;5011585;28;20049;-66
2022/01/17 08:20:13;;;;;;;10.27;5.85;;;;;;;;;;5011134;28;20057;-65
2022/01/17 08:22:41;;;;;;;12.48;6.32;;;;;;;;;;5011854;28;20127;-65
2022/01/17 08:25:09;;;;;;;11.15;5.95;;;;;;;;;;5019204;28;20049;-63
2022/01/17 08:27:36;;;;;;;11.32;6.28;;;;;;;;;;5026244;28;20076;-64
2022/01/17 08:30:04;;;;;;;9.93;5.45;;;;;;;;;;5031486;28;20042;-65
2022/01/17 08:32:32;;;;;;;12.38;6.60;;;;;;;;;;5031112;28;20136;-65
2022/01/17 08:34:59;;;;;;;10.43;6.18;;;;;;;;;;5031708;28;20410;-64
2022/01/17 08:37:30;;;;;;;12.45;6.32;;;;;;;;;;5031440;28;20454;-66
2022/01/17 08:39:57;;;;;;;;;;;;;;;;;;5031840;28;20168;-66
2022/01/17 08:42:24;;;;;;;12.73;5.93;;;;;;;;;;5025935;28;20007;-67
2022/01/17 08:44:52;;;;;;;11.88;7.05;;;;;;;;;;5019085;28;20049;-65
2022/01/17 08:47:20;;;;;;;13.30;6.57;;;;;;;;;;5017666;28;20050;-64
2022/01/17 08:49:48;;;;;;;10.45;6.00;;;;;;;;;;5020028;28;20042;-65
2022/01/17 08:52:16;;;;;;;14.02;7.07;;;;;;;;;;5021312;28;20080;-67
2022/01/17 08:54:45;;;;;;;12.00;6.40;;;;;;;;;;5020339;28;20046;-65
2022/01/17 08:57:12;;;;;;;12.25;6.38;;;;;;;;;;5017660;28;20479;-67
2022/01/17 08:59:39;;;;;;;12.43;6.63;;;;;;;;;;5021278;28;20055;-65
2022/01/17 09:02:06;;;;;;;13.30;7.78;;;;;;;;;;5021752;28;20047;-64
2022/01/17 09:04:36;;;;;;;13.52;6.88;;;;;;;;;;5017763;28;20549;-65
2022/01/17 09:07:03;;;;;;;11.95;6.53;;;;;;;;;;5020462;28;20559;-64
2022/01/17 09:09:30;;;;;;;13.00;6.70;;;;;;;;;;5022066;28;20053;-65
2022/01/17 09:11:59;;;;;;;13.13;6.70;;;;;;;;;;5020939;28;20052;-65
2022/01/17 09:14:27;;;;;;;12.88;6.95;;;;;;;;;;5019324;28;20045;-65
2022/01/17 09:16:54;;;;;;;10.15;6.50;;;;;;;;;;5017258;28;20050;-65
2022/01/17 09:19:21;;;;;;;13.57;7.07;;;;;;;;;;5020112;28;20532;-66
2022/01/17 09:21:48;;;;;;;11.70;6.28;;;;;;;;;;5021667;28;20387;-66
2022/01/17 09:24:15;;;;;;;13.25;6.43;;;;;;;;;;5020340;28;20048;-65
2022/01/17 09:26:42;;;;;;;13.00;6.65;;;;;;;;;;5032544;23;20527;-76
2022/01/17 09:29:10;;;;;;;14.68;7.43;;;;;;;;;;5011067;28;20073;-77
2022/01/17 09:31:37;;;;;;;11.07;6.45;;;;;;;;;;5008641;28;20623;-77
2022/01/17 09:34:04;;;;;;;11.25;6.15;;;;;;;;;;5011441;28;20551;-78
2022/01/17 09:36:33;;;;;;;10.57;5.60;;;;;;;;;;5014266;28;20050;-78
2022/01/17 09:39:00;;;;;;;12.63;6.50;;;;;;;;;;5012290;28;20042;-77
2022/01/17 09:41:27;;;;;;;11.38;6.97;;;;;;;;;;5013102;28;20051;-78
2022/01/17 09:43:55;;;;;;;15.18;7.25;;;;;;;;;;5011581;28;20080;-78
2022/01/17 09:46:32;;;;;;;10.40;6.28;;;;;;;;;;5014431;28;20528;-78
2022/01/17 09:49:12;;;;;;;12.00;5.95;;;;;;;;;;5017745;28;20137;-80
2022/01/17 09:52:04;;;;;;;11.23;6.72;;;;;;;;;;5019100;28;20096;-81
2022/01/17 09:54:35;;;;;;;15.73;7.82;;;;;;;;;;5018881;28;20054;-82
2022/01/17 09:57:06;;;;;;;11.35;6.40;;;;;;;;;;5016710;28;20533;-78
2022/01/17 09:59:33;;;;;;;12.68;6.88;;;;;;;;;;5015454;28;20049;-78
2022/01/17 10:02:02;;;;;;;13.45;6.47;;;;;;;;;;5016562;28;20172;-78
2022/01/17 10:04:30;;;;;;;11.75;6.55;;;;;;;;;;5016271;28;20041;-77
2022/01/17 10:06:59;;;;;;;9.88;5.88;;;;;;;;;;5018801;28;20038;-78
2022/01/17 10:09:27;;;;;;;12.20;6.45;;;;;;;;;;5023374;28;20041;-77
2022/01/17 10:12:04;;;;;;;12.80;6.30;;;;;;;;;;5019357;28;20060;-78
2022/01/17 10:14:36;;;;;;;12.32;6.55;;;;;;;;;;5018064;28;20046;-78
2022/01/17 10:17:05;;;;;;;13.30;6.40;;;;;;;;;;5017912;28;20072;-77
2022/01/17 10:19:32;;;;;;;12.27;6.15;;;;;;;;;;5014548;28;20088;-77
2022/01/17 10:22:02;;;;;;;11.02;5.57;;;;;;;;;;5016323;28;20130;-78
2022/01/17 10:24:37;;;;;;;12.27;6.05;;;;;;;;;;5015568;28;20108;-78
2022/01/17 10:35:55;;;;;;;11.10;5.63;;;;;;;;;;4970459;28;20187;-78
2022/01/17 10:38:24;;;;;;;11.73;5.32;;;;;;;;;;5012889;28;20061;-78
2022/01/17 10:40:55;;;;;;;12.00;5.82;;;;;;;;;;5025371;28;20053;-78
2022/01/17 10:43:25;;;;;;;10.18;6.07;;;;;;;;;;5016962;28;20045;-78
2022/01/17 10:45:53;;;;;;;11.82;5.95;;;;;;;;;;5019763;28;20050;-78
2022/01/17 10:48:28;;;;;;;11.30;6.28;;;;;;;;;;5018795;28;20049;-78
2022/01/17 10:50:54;;;;;;;9.23;5.38;;;;;;;;;;5017518;28;20045;-78
2022/01/17 10:53:21;;;;;;;11.15;5.70;;;;;;;;;;5018852;28;20061;-79
2022/01/17 10:55:50;;;;;;;12.27;5.88;;;;;;;;;;5018105;28;20092;-77
2022/01/17 10:58:23;;;;;;;12.57;5.40;;;;;;;;;;5017313;28;20050;-78
2022/01/17 11:00:53;;;;;;;9.75;5.25;;;;;;;;;;5017109;28;20038;-78
2022/01/17 11:03:23;;;;;;;10.38;6.03;;;;;;;;;;5018178;28;20038;-78
2022/01/17 11:05:54;;;;;;;13.90;6.75;;;;;;;;;;5017431;28;20049;-78
2022/01/17 11:08:22;;;;;;;11.40;5.88;;;;;;;;;;5018525;28;20092;-77
2022/01/17 11:10:52;;;;;;;11.77;5.65;;;;;;;;;;5022034;28;20049;-77
2022/01/17 11:13:21;;;;;;;11.23;5.60;;;;;;;;;;5027167;28;20038;-75
2022/01/17 11:15:52;;;;;;;10.38;5.45;;;;;;;;;;5030771;28;20049;-77
2022/01/17 11:18:25;;;;;;;12.82;5.47;;;;;;;;;;5029768;28;20205;-78
2022/01/17 11:20:54;;;;;;;10.02;5.32;;;;;;;;;;5027280;28;20050;-78
2022/01/17 11:23:21;;;;;;;11.15;5.55;;;;;;;;;;5018463;28;20455;-78
2022/01/17 11:25:52;;;;;;;11.00;4.90;;;;;;;;;;5015557;28;20116;-78
2022/01/17 11:28:22;;;;;;;9.20;5.10;;;;;;;;;;5021441;28;20057;-78
2022/01/17 11:30:50;;;;;;;10.60;5.85;;;;;;;;;;5027613;28;20535;-78
2022/01/17 11:33:16;;;;;;;11.30;5.32;;;;;;;;;;5016692;28;20058;-78
2022/01/17 11:35:51;;;;;;;9.82;5.00;;;;;;;;;;5017171;28;20050;-78
2022/01/17 11:38:21;;;;;;;9.38;4.97;;;;;;;;;;5017233;28;20045;-78
2022/01/17 11:40:49;;;;;;;9.80;5.75;;;;;;;;;;5016308;28;20137;-78
2022/01/17 11:43:19;;;;;;;10.38;5.53;;;;;;;;;;5016018;28;20046;-78
2022/01/17 11:45:46;;;;;;;9.18;5.32;;;;;;;;;;5013122;28;20038;-78
2022/01/17 11:48:34;;;;;;;11.90;5.68;;;;;;;;;;5010766;28;20544;-79
2022/01/17 11:51:12;;;;;;;11.07;5.93;;;;;;;;;;5016941;28;20096;-78
2022/01/17 11:53:46;;;;;;;10.48;5.40;;;;;;;;;;5018407;28;20437;-78
2022/01/17 11:56:45;;;;;;;11.20;5.03;;;;;;;;;;5015907;28;20046;-78
2022/01/17 11:59:31;;;;;;;10.27;5.55;;;;;;;;;;5013553;28;20045;-78
2022/01/17 12:02:31;;;;;;;10.05;5.28;;;;;;;;;;5006878;28;20093;-77
2022/01/17 12:05:35;;;;;;;8.82;4.00;;;;;;;;;;5015004;28;20046;-78
2022/01/17 12:08:09;;;;;;;7.70;4.15;;;;;;;;;;5015538;28;20046;-78
2022/01/17 12:10:41;;;;;;;11.05;4.95;;;;;;;;;;5017393;28;20050;-79
2022/01/17 12:13:38;;;;;;;9.73;4.82;;;;;;;;;;5017480;28;20100;-79
2022/01/17 12:16:18;;;;;;;8.65;4.65;;;;;;;;;;5017786;28;20045;-82
2022/01/17 12:18:49;;;;;;;9.35;5.00;;;;;;;;;;5022947;28;20048;-78
2022/01/17 12:21:24;;;;;;;9.98;4.90;;;;;;;;;;5022075;28;20050;-80
2022/01/17 12:24:26;;;;;;;9.40;4.50;;;;;;;;;;5016849;28;20050;-81
2022/01/17 12:27:08;;;;;;;11.77;5.15;;;;;;;;;;5017008;28;20548;-78
2022/01/17 12:29:37;;;;;;;10.18;5.47;;;;;;;;;;5017958;28;20076;-79
2022/01/17 12:32:06;;;;;;;9.63;4.90;;;;;;;;;;5015854;28;20050;-79
2022/01/17 12:34:42;;;;;;;11.43;5.68;;;;;;;;;;5016026;28;20501;-78
2022/01/17 12:37:32;;;;;;;7.60;4.20;;;;;;;;;;5018114;28;20072;-82
2022/01/17 12:40:14;;;;;;;10.50;4.93;;;;;;;;;;5014392;28;20100;-78
2022/01/17 12:43:08;;;;;;;9.48;4.78;;;;;;;;;;5012309;28;20444;-78
2022/01/17 12:45:37;;;;;;;8.93;4.63;;;;;;;;;;5006570;28;20110;-78
2022/01/17 12:48:06;;;;;;;10.10;5.20;;;;;;;;;;5013004;28;20057;-78
2022/01/17 12:50:36;;;;;;;8.88;4.35;;;;;;;;;;5015361;28;20049;-78
2022/01/17 12:53:04;;;;;;;9.32;4.75;;;;;;;;;;5015641;28;20069;-78
2022/01/17 12:55:39;;;;;;;10.02;5.32;;;;;;;;;;5013901;28;20054;-78
2022/01/17 12:58:17;;;;;;;9.65;5.55;;;;;;;;;;5015115;28;20496;-78
2022/01/17 13:00:46;;;;;;;8.65;4.82;;;;;;;;;;5015365;28;20054;-78
2022/01/17 13:03:14;;;;;;;7.43;4.30;;;;;;;;;;5014842;28;20456;-78
2022/01/17 13:05:42;;;;;;;7.47;3.78;;;;;;;;;;5014810;28;20046;-77
2022/01/17 13:08:09;;;;;;;8.30;3.90;;;;;;;;;;5016862;28;20534;-77
2022/01/17 13:10:37;;;;;;;7.88;4.10;;;;;;;;;;5019857;28;20049;-77
2022/01/17 13:13:04;;;;;;;7.65;3.83;;;;;;;;;;5020282;28;20050;-77
2022/01/17 13:15:32;;;;;;;7.93;3.22;;;;;;;;;;5020355;28;20096;-77
2022/01/17 13:17:59;;;;;;;5.88;3.05;;;;;;;;;;5019164;28;20042;-77
2022/01/17 13:20:28;;;;;;;6.40;3.35;;;;;;;;;;5019254;28;20038;-78
2022/01/17 13:23:02;;;;;;;8.07;4.00;;;;;;;;;;5017159;28;20045;-78
2022/01/17 13:25:29;;;;;;;7.00;3.83;;;;;;;;;;5016359;28;20046;-78
2022/01/17 13:28:01;;;;;;;7.18;3.70;;;;;;;;;;5013978;28;20046;-77
2022/01/17 13:30:31;;;;;;;6.88;3.83;;;;;;;;;;5016881;28;20037;-78
2022/01/17 13:32:58;;;;;;;7.33;3.70;;;;;;;;;;5011779;28;20103;-77
2022/01/17 13:35:25;;;;;;;7.78;3.65;;;;;;;;;;5010672;28;20042;-77
2022/01/17 13:38:06;;;;;;;7.38;4.10;;;;;;;;;;5007672;28;20097;-77
2022/01/17 13:40:34;;;;;;;7.90;4.13;;;;;;;;;;5009614;28;20057;-78
2022/01/17 13:43:03;;;;;;;9.95;3.90;;;;;;;;;;5011762;28;20046;-77
2022/01/17 13:45:32;;;;;;;7.68;3.60;;;;;;;;;;5013623;28;20112;-78
2022/01/17 13:47:59;;;;;;;7.95;4.68;;;;;;;;;;5014552;28;20054;-78
2022/01/17 13:50:26;;;;;;;7.25;4.20;;;;;;;;;;5014936;28;20409;-78
2022/01/17 13:52:53;;;;;;;9.02;4.03;;;;;;;;;;5014812;28;20499;-79
2022/01/17 13:55:31;;;;;;;5.70;3.20;;;;;;;;;;5011941;28;20046;-77
2022/01/17 13:58:00;;;;;;;7.03;3.55;;;;;;;;;;5014169;28;20050;-78
2022/01/17 14:00:37;;;;;;;8.50;4.10;;;;;;;;;;5012815;28;20050;-77
2022/01/17 14:03:06;;;;;;;6.57;2.72;;;;;;;;;;5013402;28;20101;-78
2022/01/17 14:05:35;;;;;;;5.30;2.60;;;;;;;;;;5014898;28;20120;-78
2022/01/17 14:08:20;;;;;;;5.68;3.20;;;;;;;;;;5014769;28;20425;-79
2022/01/17 14:10:57;;;;;;;5.65;2.95;;;;;;;;;;5014338;28;20093;-78
2022/01/17 14:13:26;;;;;;;5.18;2.97;;;;;;;;;;5015613;28;20129;-78
2022/01/17 14:15:54;;;;;;;6.15;3.08;;;;;;;;;;5016918;28;20476;-79
2022/01/17 14:18:21;;;;;;;6.13;3.15;;;;;;;;;;5013481;28;20050;-79
2022/01/17 14:20:53;;;;;;;5.22;2.65;;;;;;;;;;5014993;28;20045;-78
2022/01/17 14:23:31;;;;;;;4.95;2.53;;;;;;;;;;5015428;28;20042;-78
2022/01/17 14:25:59;;;;;;;5.00;2.92;;;;;;;;;;5014061;28;20053;-77
2022/01/17 14:28:28;;;;;;;4.15;2.45;;;;;;;;;;5012775;28;20116;-78
2022/01/17 14:30:57;;;;;;;6.00;2.40;;;;;;;;;;5013037;28;20108;-79
2022/01/17 14:33:26;;;;;;;5.07;2.63;;;;;;;;;;5011926;28;20060;-77
2022/01/17 14:36:07;;;;;;;6.47;2.47;;;;;;;;;;5012347;28;20089;-78
2022/01/17 14:38:41;;;;;;;4.28;2.10;;;;;;;;;;5013814;28;20053;-78
2022/01/17 14:41:07;;;;;;;4.13;2.42;;;;;;;;;;5021621;28;20046;-78
2022/01/17 14:43:36;;;;;;;4.68;2.30;;;;;;;;;;5024148;28;20057;-76
2022/01/17 14:46:07;;;;;;;4.00;1.80;;;;;;;;;;5026055;28;20053;-77
2022/01/17 14:48:38;;;;;;;5.00;2.00;;;;;;;;;;5027897;28;20068;-78
2022/01/17 14:51:19;;;;;;;3.65;1.90;;;;;;;;;;5022673;28;20108;-79
2022/01/17 14:53:51;;;;;;;3.75;1.50;;;;;;;;;;5018333;28;20049;-79
2022/01/17 14:59:35;;;;;;;4.28;1.90;;;;;;;;;;5020608;28;20072;-78
2022/01/17 15:02:11;;;;;;;3.42;1.85;;;;;;;;;;5027424;28;20093;-78
2022/01/17 15:04:39;;;;;;;4.97;2.28;;;;;;;;;;5018964;28;20078;-78